createdAt,value
2022-08-29T00:01:49.971Z,98768.34
2022-08-29T00:04:17.155Z,98773.59
2022-08-29T00:06:44.271Z,98770.16
2022-08-29T00:09:11.312Z,98778.88
2022-08-29T00:11:39.760Z,98785.09
2022-08-29T00:14:20.468Z,98772.94
2022-08-29T00:16:50.697Z,98780.69
2022-08-29T00:19:17.854Z,98778.19
2022-08-29T00:21:44.961Z,98773.59
2022-08-29T00:24:12.036Z,98776.38
2022-08-29T00:26:39.359Z,98777.38
2022-08-29T00:29:06.403Z,98771.28
2022-08-29T00:31:33.463Z,98775.72
2022-08-29T00:34:00.583Z,98771.28
2022-08-29T00:36:30.532Z,98781.97
2022-08-29T00:38:58.327Z,98782.81
2022-08-29T00:41:25.483Z,98780.31
2022-08-29T00:43:52.520Z,98777.53
2022-08-29T00:46:19.621Z,98782.81
2022-08-29T00:48:46.721Z,98774.22
2022-08-29T00:51:13.834Z,98777.03
2022-08-29T00:53:41.940Z,98778.00
2022-08-29T00:56:09.032Z,98781.44
2022-08-29T00:58:36.078Z,98782.44
2022-08-29T01:01:03.185Z,98785.06
2022-08-29T01:03:30.251Z,98782.44
2022-08-29T01:05:57.351Z,98783.44
2022-08-29T01:08:24.392Z,98785.06
2022-08-29T01:11:10.130Z,98778.34
2022-08-29T01:13:37.186Z,98776.66
2022-08-29T01:16:04.288Z,98779.16
2022-08-29T01:18:31.482Z,98778.34
2022-08-29T01:20:58.516Z,98784.56
2022-08-29T01:23:25.581Z,98789.00
2022-08-29T01:25:52.659Z,98786.38
2022-08-29T01:28:19.728Z,98791.63
2022-08-29T01:30:46.770Z,98798.72
2022-08-29T01:33:13.824Z,98791.63
2022-08-29T01:35:41.842Z,98790.00
2022-08-29T01:38:08.920Z,98790.00
2022-08-29T01:40:36.029Z,98788.34
2022-08-29T01:43:03.137Z,98790.13
2022-08-29T01:45:30.231Z,98794.56
2022-08-29T01:47:58.418Z,98798.03
2022-08-29T01:50:27.830Z,98796.38
2022-08-29T01:52:54.869Z,98792.94
2022-08-29T01:55:21.940Z,98795.56
2022-08-29T01:57:49.008Z,98795.56
2022-08-29T02:00:18.491Z,98795.56
2022-08-29T02:02:45.547Z,98797.38
2022-08-29T02:05:12.620Z,98796.56
2022-08-29T02:07:39.692Z,98797.38
2022-08-29T02:10:06.726Z,98794.91
2022-08-29T02:12:34.453Z,98797.38
2022-08-29T02:15:01.583Z,98794.06
2022-08-29T02:17:29.674Z,98791.59
2022-08-29T02:19:56.741Z,98795.88
2022-08-29T02:22:23.790Z,98793.25
2022-08-29T02:24:50.843Z,98793.25
2022-08-29T02:27:17.954Z,98789.78
2022-08-29T02:29:45.002Z,98783.53
2022-08-29T02:32:12.294Z,98787.03
2022-08-29T02:34:39.443Z,98790.63
2022-08-29T02:37:09.569Z,98800.50
2022-08-29T02:39:36.607Z,98796.19
2022-08-29T02:42:03.660Z,98791.09
2022-08-29T02:44:30.746Z,98791.91
2022-08-29T02:46:57.901Z,98790.91
2022-08-29T02:49:25.070Z,98794.41
2022-08-29T02:51:52.126Z,98799.81
2022-08-29T02:54:19.450Z,98787.78
2022-08-29T02:56:46.494Z,98794.53
2022-08-29T02:59:14.279Z,98793.72
2022-08-29T03:01:41.342Z,98794.72
2022-08-29T03:04:08.506Z,98796.34
2022-08-29T03:06:35.605Z,98798.97
2022-08-29T03:09:02.699Z,98795.53
2022-08-29T03:11:29.909Z,98795.66
2022-08-29T03:13:57.510Z,98794.03
2022-08-29T03:16:25.012Z,98802.91
2022-08-29T03:18:52.123Z,98792.38
2022-08-29T03:21:20.355Z,98805.53
2022-08-29T03:23:47.383Z,98794.34
2022-08-29T03:26:14.418Z,98804.72
2022-08-29T03:28:41.465Z,98801.28
2022-08-29T03:31:09.145Z,98809.16
2022-08-29T03:33:36.246Z,98802.22
2022-08-29T03:36:03.499Z,98802.22
2022-08-29T03:38:35.772Z,98806.69
2022-08-29T03:41:02.941Z,98805.84
2022-08-29T03:43:30.206Z,98799.78
2022-08-29T03:45:57.329Z,98806.84
2022-08-29T03:48:24.375Z,98810.28
2022-08-29T03:50:56.217Z,98809.47
2022-08-29T03:53:23.555Z,98797.31
2022-08-29T03:55:52.007Z,98803.69
2022-08-29T03:58:19.494Z,98805.19
2022-08-29T04:00:47.027Z,98802.56
2022-08-29T04:03:14.231Z,98796.44
2022-08-29T04:05:41.378Z,98808.78
2022-08-29T04:08:08.683Z,98815.03
2022-08-29T04:10:37.541Z,98810.91
2022-08-29T04:13:05.937Z,98816.16
2022-08-29T04:15:33.537Z,98817.16
2022-08-29T04:18:00.573Z,98816.16
2022-08-29T04:20:27.607Z,98813.69
2022-08-29T04:22:54.647Z,98817.16
2022-08-29T04:25:21.911Z,98815.50
2022-08-29T04:27:49.706Z,98816.34
2022-08-29T04:30:16.880Z,98817.31
2022-08-29T04:32:43.940Z,98823.50
2022-08-29T04:35:12.669Z,98826.03
2022-08-29T04:37:39.963Z,98829.75
2022-08-29T04:40:07.099Z,98834.03
2022-08-29T04:42:34.215Z,98836.66
2022-08-29T04:45:01.253Z,98830.75
2022-08-29T04:47:28.289Z,98835.03
2022-08-29T04:49:55.551Z,98842.91
2022-08-29T04:52:22.700Z,98845.56
2022-08-29T04:54:50.261Z,98855.25
2022-08-29T04:57:17.307Z,98850.81
2022-08-29T04:59:44.910Z,98847.38
2022-08-29T05:02:12.313Z,98850.97
2022-08-29T05:04:39.446Z,98851.81
2022-08-29T05:07:06.534Z,98861.50
2022-08-29T05:09:33.819Z,98856.38
2022-08-29T05:12:00.863Z,98859.00
2022-08-29T05:14:27.908Z,98853.75
2022-08-29T05:16:54.977Z,98852.09
2022-08-29T05:19:22.067Z,98853.91
2022-08-29T05:21:50.026Z,98858.19
2022-08-29T05:24:17.726Z,98854.91
2022-08-29T05:26:44.780Z,98858.34
2022-08-29T05:29:11.852Z,98852.09
2022-08-29T05:31:41.086Z,98856.69
2022-08-29T05:34:14.074Z,98852.28
2022-08-29T05:36:55.455Z,98859.19
2022-08-29T05:39:22.505Z,98856.56
2022-08-29T05:41:50.220Z,98857.53
2022-08-29T05:44:17.248Z,98860.31
2022-08-29T05:46:44.353Z,98859.31
2022-08-29T05:49:11.414Z,98873.16
2022-08-29T05:51:39.775Z,98880.22
2022-08-29T05:54:07.050Z,98879.53
2022-08-29T05:56:34.107Z,98877.91
2022-08-29T05:59:01.139Z,98872.63
2022-08-29T06:01:28.203Z,98873.47
2022-08-29T06:03:55.341Z,98873.63
2022-08-29T06:06:23.385Z,98865.72
2022-08-29T06:08:51.062Z,98869.34
2022-08-29T06:11:18.126Z,98873.63
2022-08-29T06:13:45.212Z,98877.06
2022-08-29T06:16:12.436Z,98870.81
2022-08-29T06:18:39.495Z,98869.34
2022-08-29T06:21:06.624Z,98865.88
2022-08-29T06:23:33.705Z,98866.72
2022-08-29T06:26:00.744Z,98877.25
2022-08-29T06:28:27.774Z,98871.13
2022-08-29T06:30:54.849Z,98873.75
2022-08-29T06:33:22.075Z,98875.56
2022-08-29T06:35:49.140Z,98875.56
2022-08-29T06:38:16.444Z,98873.75
2022-08-29T06:40:43.774Z,98876.25
2022-08-29T06:43:10.850Z,98876.38
2022-08-29T06:45:37.999Z,98876.38
2022-08-29T06:48:05.038Z,98876.38
2022-08-29T06:50:32.161Z,98878.88
2022-08-29T06:53:26.581Z,98879.88
2022-08-29T06:55:46.949Z,98879.88
2022-08-29T06:58:14.142Z,98882.19
2022-08-29T07:00:41.277Z,98877.91
2022-08-29T07:03:08.478Z,98884.81
2022-08-29T07:05:35.615Z,98877.59
2022-08-29T07:08:02.803Z,98884.66
2022-08-29T07:10:29.834Z,98886.31
2022-08-29T07:12:56.943Z,98885.31
2022-08-29T07:15:24.123Z,98891.28
2022-08-29T07:17:51.271Z,98890.59
2022-08-29T07:20:18.481Z,98899.31
2022-08-29T07:22:51.116Z,98896.84
2022-08-29T07:25:18.202Z,98891.28
2022-08-29T07:27:45.306Z,98897.38
2022-08-29T07:30:12.389Z,98889.47
2022-08-29T07:32:43.337Z,98891.94
2022-08-29T07:35:13.355Z,98895.13
2022-08-29T07:37:40.714Z,98898.13
2022-08-29T07:40:07.899Z,98897.97
2022-08-29T07:42:34.955Z,98904.06
2022-08-29T07:45:02.583Z,98903.75
2022-08-29T07:47:29.606Z,98903.59
2022-08-29T07:49:56.810Z,98904.59
2022-08-29T07:52:23.911Z,98914.00
2022-08-29T07:54:51.018Z,98907.72
2022-08-29T07:57:18.050Z,98909.53
2022-08-29T07:59:45.098Z,98905.94
2022-08-29T08:02:12.237Z,98912.69
2022-08-29T08:04:39.546Z,98909.06
2022-08-29T08:07:06.641Z,98912.53
2022-08-29T08:09:40.962Z,98908.13
2022-08-29T08:12:09.732Z,98906.31
2022-08-29T08:14:36.808Z,98914.03
2022-08-29T08:17:03.928Z,98913.06
2022-08-29T08:19:31.211Z,98906.97
2022-08-29T08:21:59.419Z,98911.25
2022-08-29T08:24:26.474Z,98908.59
2022-08-29T08:26:53.963Z,98908.47
2022-08-29T08:29:21.070Z,98916.38
2022-08-29T08:31:49.503Z,98913.75
2022-08-29T08:34:16.666Z,98912.75
2022-08-29T08:36:44.806Z,98913.75
2022-08-29T08:39:11.868Z,98910.28
2022-08-29T08:41:39.149Z,98906.66
2022-08-29T08:44:07.444Z,98911.09
2022-08-29T08:46:36.170Z,98910.13
2022-08-29T08:49:03.577Z,98913.25
2022-08-29T08:51:30.711Z,98897.47
2022-08-29T08:53:57.750Z,98901.75
2022-08-29T08:56:24.794Z,98894.66
2022-08-29T08:58:51.906Z,98897.31
2022-08-29T09:01:19.035Z,98897.97
2022-08-29T09:03:47.067Z,98893.53
2022-08-29T09:06:15.765Z,98895.34
2022-08-29T09:08:43.002Z,98897.69
2022-08-29T09:11:11.358Z,98902.13
2022-08-29T09:13:38.737Z,98898.50
2022-08-29T09:16:05.786Z,98913.31
2022-08-29T09:18:32.814Z,98912.50
2022-08-29T09:21:06.530Z,98906.22
2022-08-29T09:23:37.006Z,98912.34
2022-08-29T09:26:04.075Z,98909.84
2022-08-29T09:28:31.438Z,98908.88
2022-08-29T09:30:58.498Z,98907.75
2022-08-29T09:33:25.532Z,98912.19
2022-08-29T09:35:52.574Z,98917.28
2022-08-29T09:38:21.245Z,98914.66
2022-08-29T09:40:48.353Z,98919.28
2022-08-29T09:43:15.617Z,98911.88
2022-08-29T09:45:42.748Z,98913.84
2022-08-29T09:48:10.100Z,98908.44
2022-08-29T09:50:37.160Z,98908.44
2022-08-29T09:53:05.770Z,98913.53
2022-08-29T09:55:51.300Z,98906.63
2022-08-29T09:58:19.158Z,98903.00
2022-08-29T10:00:46.285Z,98905.47
2022-08-29T10:03:13.416Z,98908.09
2022-08-29T10:05:46.824Z,98904.34
2022-08-29T10:08:13.874Z,98904.34
2022-08-29T10:10:41.082Z,98886.72
2022-08-29T10:13:08.411Z,98894.47
2022-08-29T10:15:49.855Z,98895.31
2022-08-29T10:18:20.527Z,98891.97
2022-08-29T10:20:47.599Z,98897.13
2022-08-29T10:23:14.786Z,98897.13
2022-08-29T10:25:42.094Z,98891.03
2022-08-29T10:28:09.179Z,98895.44
2022-08-29T10:30:36.217Z,98886.56
2022-08-29T10:33:04.655Z,98895.31
2022-08-29T10:35:31.690Z,98894.47
2022-08-29T10:37:58.747Z,98891.69
2022-08-29T10:40:25.885Z,98892.38
2022-08-29T10:42:53.755Z,98890.69
2022-08-29T10:45:20.827Z,98891.38
2022-08-29T10:47:47.903Z,98895.00
2022-08-29T10:50:27.447Z,98893.00
2022-08-29T10:53:01.298Z,98890.38
2022-08-29T10:55:28.351Z,98885.94
2022-08-29T10:57:55.414Z,98892.03
2022-08-29T11:00:22.672Z,98890.38
2022-08-29T11:02:49.744Z,98891.88
2022-08-29T11:05:17.323Z,98893.84
2022-08-29T11:07:44.427Z,98886.09
2022-08-29T11:10:11.503Z,98891.06
2022-08-29T11:12:45.075Z,98893.53
2022-08-29T11:15:12.120Z,98892.69
2022-08-29T11:17:39.154Z,98889.25
2022-08-29T11:20:11.406Z,98890.88
2022-08-29T11:22:38.594Z,98884.63
2022-08-29T11:25:05.639Z,98886.44
2022-08-29T11:27:32.700Z,98878.22
2022-08-29T11:29:59.790Z,98873.78
2022-08-29T11:32:26.893Z,98870.31
2022-08-29T11:34:54.330Z,98872.16
2022-08-29T11:37:21.371Z,98874.78
2022-08-29T11:39:48.411Z,98874.78
2022-08-29T11:42:49.895Z,98873.97
2022-08-29T11:45:03.724Z,98865.06
2022-08-29T11:47:30.825Z,98864.06
2022-08-29T11:50:04.711Z,98869.19
2022-08-29T11:52:31.847Z,98863.09
2022-08-29T11:54:58.888Z,98857.00
2022-08-29T11:57:25.915Z,98861.28
2022-08-29T11:59:54.602Z,98856.84
2022-08-29T12:02:22.405Z,98854.22
2022-08-29T12:04:49.572Z,98858.50
2022-08-29T12:07:16.692Z,98860.84
2022-08-29T12:09:43.915Z,98847.50
2022-08-29T12:12:12.698Z,98845.19
2022-08-29T12:14:39.737Z,98843.91
2022-08-29T12:17:06.853Z,98846.41
2022-08-29T12:19:33.886Z,98840.19
2022-08-29T12:22:01.149Z,98842.97
2022-08-29T12:24:28.930Z,98845.09
2022-08-29T12:26:56.025Z,98840.03
2022-08-29T12:29:23.140Z,98829.84
2022-08-29T12:32:17.535Z,98834.94
2022-08-29T12:34:38.861Z,98832.63
2022-08-29T12:37:10.633Z,98830.66
2022-08-29T12:39:37.712Z,98835.78
2022-08-29T12:42:04.774Z,98837.78
2022-08-29T12:44:31.868Z,98824.75
2022-08-29T12:46:58.956Z,98816.84
2022-08-29T12:49:26.851Z,98818.31
2022-08-29T12:51:53.902Z,98809.59
2022-08-29T12:54:20.940Z,98822.59
2022-08-29T12:56:48.018Z,98812.72
2022-08-29T12:59:15.068Z,98814.88
2022-08-29T13:01:42.172Z,98815.84
2022-08-29T13:04:09.265Z,98809.09
2022-08-29T13:06:36.398Z,98807.44
2022-08-29T13:09:04.973Z,98807.63
2022-08-29T13:11:32.239Z,98812.09
2022-08-29T13:13:59.316Z,98808.13
2022-08-29T13:16:26.497Z,98803.34
2022-08-29T13:19:09.980Z,98803.88
2022-08-29T13:21:37.765Z,98794.63
2022-08-29T13:24:04.891Z,98800.72
2022-08-29T13:26:34.113Z,98800.72
2022-08-29T13:29:01.315Z,98786.53
2022-08-29T13:31:28.681Z,98784.41
2022-08-29T13:33:55.932Z,98784.72
2022-08-29T13:36:22.979Z,98786.22
2022-08-29T13:38:50.037Z,98782.09
2022-08-29T13:41:17.075Z,98776.81
2022-08-29T13:43:44.822Z,98769.22
2022-08-29T13:46:14.919Z,98769.41
2022-08-29T13:48:42.431Z,98770.22
2022-08-29T13:51:09.465Z,98770.88
2022-08-29T13:53:36.516Z,98760.16
2022-08-29T13:56:03.553Z,98763.78
2022-08-29T13:58:31.529Z,98769.41
2022-08-29T14:00:58.742Z,98772.72
2022-08-29T14:03:25.956Z,98769.91
2022-08-29T14:05:56.627Z,98761.31
2022-08-29T14:08:23.840Z,98763.63
2022-08-29T14:10:50.916Z,98753.06
2022-08-29T14:13:18.004Z,98752.91
2022-08-29T14:15:45.093Z,98754.75
2022-08-29T14:18:12.278Z,98753.41
2022-08-29T14:20:39.862Z,98751.13
2022-08-29T14:23:07.299Z,98745.47
2022-08-29T14:25:34.355Z,98745.78
2022-08-29T14:28:01.434Z,98751.91
2022-08-29T14:30:28.538Z,98745.00
2022-08-29T14:32:55.606Z,98745.97
2022-08-29T14:35:26.003Z,98740.38
2022-08-29T14:37:53.490Z,98742.69
2022-08-29T14:40:21.664Z,98742.69
2022-08-29T14:42:49.100Z,98743.00
2022-08-29T14:45:16.171Z,98740.38
2022-08-29T14:47:43.557Z,98750.94
2022-08-29T14:50:12.770Z,98747.47
2022-08-29T14:52:39.820Z,98742.53
2022-08-29T14:55:06.863Z,98744.50
2022-08-29T14:57:35.912Z,98730.81
2022-08-29T15:00:02.983Z,98739.75
2022-08-29T15:02:30.058Z,98744.66
2022-08-29T15:04:58.533Z,98730.81
2022-08-29T15:07:25.578Z,98735.44
2022-08-29T15:09:52.655Z,98735.25
2022-08-29T15:12:21.663Z,98726.31
2022-08-29T15:14:48.770Z,98720.72
2022-08-29T15:17:15.846Z,98734.91
2022-08-29T15:22:30.020Z,98731.78
2022-08-29T15:24:57.077Z,98733.44
2022-08-29T15:27:27.456Z,98724.03
2022-08-29T15:29:55.190Z,98720.56
2022-08-29T15:32:22.311Z,98720.38
2022-08-29T15:34:49.575Z,98720.06
2022-08-29T15:37:16.884Z,98714.28
2022-08-29T15:39:44.138Z,98716.28
2022-08-29T15:42:11.351Z,98717.38
2022-08-29T15:44:38.438Z,98721.03
2022-08-29T15:47:05.516Z,98715.56
2022-08-29T15:49:37.670Z,98714.75
2022-08-29T15:52:05.076Z,98708.47
2022-08-29T15:54:32.114Z,98705.72
2022-08-29T15:56:59.146Z,98710.63
2022-08-29T15:59:47.266Z,98704.97
2022-08-29T16:02:14.495Z,98708.44
2022-08-29T16:04:44.792Z,98705.69
2022-08-29T16:07:13.582Z,98709.63
2022-08-29T16:09:40.618Z,98708.63
2022-08-29T16:12:08.373Z,98704.00
2022-08-29T16:17:22.485Z,98698.34
2022-08-29T16:19:49.564Z,98703.31
2022-08-29T16:22:16.615Z,98693.88
2022-08-29T16:24:44.215Z,98692.84
2022-08-29T16:27:11.358Z,98699.25
2022-08-29T16:29:38.487Z,98694.84
2022-08-29T16:32:07.713Z,98694.13
2022-08-29T16:34:34.758Z,98687.34
2022-08-29T16:37:01.838Z,98683.91
2022-08-29T16:39:28.984Z,98686.84
2022-08-29T16:41:56.023Z,98688.50
2022-08-29T16:44:23.063Z,98689.19
2022-08-29T16:46:50.142Z,98687.16
2022-08-29T16:49:17.198Z,98683.66
2022-08-29T16:51:44.241Z,98688.59
2022-08-29T16:54:12.420Z,98697.00
2022-08-29T16:56:39.803Z,98688.00
2022-08-29T16:59:06.914Z,98687.31
2022-08-29T17:01:34.628Z,98684.72
2022-08-29T17:04:01.824Z,98685.66
2022-08-29T17:06:29.091Z,98688.66
2022-08-29T17:08:56.126Z,98687.31
2022-08-29T17:11:23.131Z,98687.59
2022-08-29T17:13:50.125Z,98682.50
2022-08-29T17:16:17.217Z,98682.22
2022-08-29T17:18:44.314Z,98682.38
2022-08-29T17:21:11.506Z,98681.38
2022-08-29T17:23:38.680Z,98678.56
2022-08-29T17:26:05.713Z,98684.38
2022-08-29T17:28:32.774Z,98688.16
2022-08-29T17:30:59.888Z,98681.88
2022-08-29T17:33:26.949Z,98681.88
2022-08-29T17:35:54.055Z,98678.91
2022-08-29T17:38:21.082Z,98683.19
2022-08-29T17:40:49.093Z,98681.72
2022-08-29T17:43:18.367Z,98682.41
2022-08-29T17:45:45.553Z,98678.94
2022-08-29T17:48:12.675Z,98681.13
2022-08-29T17:50:40.432Z,98680.25
2022-08-29T17:53:07.506Z,98680.91
2022-08-29T17:55:34.561Z,98681.41
2022-08-29T17:58:01.598Z,98680.13
2022-08-29T18:00:28.730Z,98685.88
2022-08-29T18:02:55.903Z,98683.41
2022-08-29T18:05:22.968Z,98686.88
2022-08-29T18:07:51.432Z,98685.28
2022-08-29T18:10:18.631Z,98684.56
2022-08-29T18:12:45.695Z,98690.69
2022-08-29T18:15:12.765Z,98692.69
2022-08-29T18:17:39.911Z,98690.34
2022-08-29T18:20:07.555Z,98697.97
2022-08-29T18:22:34.690Z,98704.59
2022-08-29T18:25:01.751Z,98707.25
2022-08-29T18:27:28.825Z,98716.66
2022-08-29T18:29:56.794Z,98714.69
2022-08-29T18:32:25.589Z,98714.16
2022-08-29T18:34:57.613Z,98718.44
2022-08-29T18:37:27.492Z,98715.78
2022-08-29T18:39:54.728Z,98722.25
2022-08-29T18:42:39.421Z,98718.28
2022-08-29T18:45:08.134Z,98718.44
2022-08-29T18:47:35.188Z,98719.78
2022-08-29T18:50:20.778Z,98728.38
2022-08-29T18:52:52.250Z,98728.75
2022-08-29T18:55:19.390Z,98731.41
2022-08-29T18:57:48.308Z,98742.97
2022-08-29T19:00:15.431Z,98734.88
2022-08-29T19:02:42.656Z,98742.28
2022-08-29T19:05:09.804Z,98742.47
2022-08-29T19:07:36.839Z,98756.81
2022-08-29T19:10:03.906Z,98744.97
2022-08-29T19:12:30.998Z,98743.47
2022-08-29T19:14:58.066Z,98755.84
2022-08-29T19:17:25.100Z,98749.25
2022-08-29T19:20:11.019Z,98748.78
2022-08-29T19:22:39.512Z,98752.22
2022-08-29T19:25:06.950Z,98749.28
2022-08-29T19:27:43.246Z,98749.94
2022-08-29T19:30:11.093Z,98748.63
2022-08-29T19:32:38.575Z,98748.97
2022-08-29T19:35:05.609Z,98754.56
2022-08-29T19:37:33.107Z,98754.75
2022-08-29T19:40:01.176Z,98750.28
2022-08-29T19:42:28.458Z,98750.94
2022-08-29T19:44:56.451Z,98750.59
2022-08-29T19:47:24.008Z,98762.63
2022-08-29T19:49:51.718Z,98758.50
2022-08-29T19:52:18.761Z,98770.19
2022-08-29T19:54:46.492Z,98767.56
2022-08-29T19:57:14.673Z,98769.72
2022-08-29T19:59:42.388Z,98771.69
2022-08-29T20:02:10.770Z,98769.06
2022-08-29T20:04:37.902Z,98771.53
2022-08-29T20:07:05.460Z,98771.03
2022-08-29T20:09:32.535Z,98775.31
2022-08-29T20:12:00.884Z,98771.19
2022-08-29T20:14:28.002Z,98776.31
2022-08-29T20:16:55.224Z,98774.16
